Time;durP1;ratioP1;P1;durP2;ratioP2;P2;SDS_P1;SDS_P2;PMS_P1;PMS_P2;Temp;Humidity;BMP_temperature;BMP_pressure;BME280_temperature;BME280_humidity;BME280_pressure;Samples;Min_cycle;Max_cycle;Signal;HPM_P1;HPM_P2
2023/08/23 05:45:59;;;;;;;12.85;11.60;;;;;;;;;;6279147;22;20512;-90
2023/08/23 05:48:25;;;;;;;13.23;12.02;;;;;;;;;;6279092;22;20012;-90
2023/08/23 05:50:51;;;;;;;13.85;12.50;;;;;;;;;;6241911;23;20091;-90
2023/08/23 05:53:19;;;;;;;12.82;11.57;;;;;;;;;;6221464;23;20008;-93
2023/08/23 05:55:49;;;;;;;13.82;12.40;;;;;;;;;;6224976;23;20004;-93
2023/08/23 05:58:19;;;;;;;14.75;12.23;;;;;;;;;;6254864;23;20000;-96
2023/08/23 06:00:45;;;;;;;12.35;11.25;;;;;;;;;;6255453;22;20446;-87
2023/08/23 06:03:14;;;;;;;14.10;12.73;;;;;;;;;;6262386;22;20009;-89
2023/08/23 06:05:42;;;;;;;13.43;12.00;;;;;;;;;;6224656;23;20019;-94
2023/08/23 09:28:10;;;;;;;13.10;11.90;;;;;;;;;;6338604;22;20007;-78
2023/08/23 09:30:35;;;;;;;13.07;11.90;;;;;;;;;;6340759;22;20034;-80
2023/08/23 09:33:01;;;;;;;14.02;12.65;;;;;;;;;;6307867;22;20425;-80
2023/08/23 09:35:27;;;;;;;13.95;12.65;;;;;;;;;;6309279;22;20410;-79
2023/08/23 09:37:52;;;;;;;13.07;11.88;;;;;;;;;;6309493;22;20014;-93
2023/08/23 09:40:23;;;;;;;13.15;11.85;;;;;;;;;;6309404;22;20033;-88
2023/08/23 09:42:52;;;;;;;12.93;11.82;;;;;;;;;;6308974;22;19999;-87
2023/08/23 09:45:18;;;;;;;14.23;12.70;;;;;;;;;;6309562;22;19995;-88
2023/08/23 09:47:55;;;;;;;13.63;12.43;;;;;;;;;;6309833;22;20090;-88
2023/08/23 09:50:25;;;;;;;14.52;13.15;;;;;;;;;;6309626;22;19999;-86
2023/08/23 09:52:57;;;;;;;13.82;12.52;;;;;;;;;;6308812;22;20488;-84
2023/08/23 09:55:24;;;;;;;15.30;13.80;;;;;;;;;;6308946;22;20003;-85
2023/08/23 09:57:54;;;;;;;13.27;12.07;;;;;;;;;;6309383;22;20026;-81
2023/08/23 10:00:21;;;;;;;12.52;11.32;;;;;;;;;;6308906;22;20035;-82
2023/08/23 10:02:47;;;;;;;13.68;12.48;;;;;;;;;;6281468;22;20003;-82
2023/08/23 10:05:13;;;;;;;13.95;12.75;;;;;;;;;;6309256;22;20034;-83
2023/08/23 10:07:40;;;;;;;13.32;12.18;;;;;;;;;;6308861;22;20434;-87
2023/08/23 10:10:06;;;;;;;13.30;11.88;;;;;;;;;;6308863;22;20010;-86
2023/08/23 10:12:38;;;;;;;13.05;11.85;;;;;;;;;;6308530;22;20018;-84
2023/08/23 10:15:05;;;;;;;13.18;11.73;;;;;;;;;;6308966;22;20433;-86
2023/08/23 10:17:31;;;;;;;12.68;11.57;;;;;;;;;;6309098;22;20003;-86
2023/08/23 10:19:57;;;;;;;14.38;12.77;;;;;;;;;;6308962;22;20003;-83
2023/08/23 10:22:24;;;;;;;13.80;12.60;;;;;;;;;;6309014;22;20053;-84
2023/08/23 10:24:50;;;;;;;12.95;11.75;;;;;;;;;;6281401;22;20010;-88
2023/08/23 10:27:17;;;;;;;13.23;11.80;;;;;;;;;;6308793;22;20011;-86
2023/08/23 10:29:43;;;;;;;13.80;12.63;;;;;;;;;;6308434;22;20026;-89
2023/08/23 10:32:09;;;;;;;13.25;12.02;;;;;;;;;;6281221;22;20007;-87
2023/08/23 10:34:37;;;;;;;12.52;11.52;;;;;;;;;;6308704;22;20035;-87
2023/08/23 10:37:19;;;;;;;13.48;12.40;;;;;;;;;;6308781;22;20007;-89
2023/08/23 10:39:50;;;;;;;12.48;11.43;;;;;;;;;;6308389;22;20006;-89
2023/08/23 10:42:20;;;;;;;12.95;11.85;;;;;;;;;;6309329;22;20006;-89
2023/08/23 10:44:52;;;;;;;13.30;11.82;;;;;;;;;;6308501;22;20056;-81
2023/08/23 10:47:18;;;;;;;13.70;12.30;;;;;;;;;;6308371;22;20034;-81
2023/08/23 10:49:46;;;;;;;13.73;12.60;;;;;;;;;;6308616;22;19999;-81
2023/08/23 10:52:12;;;;;;;13.65;12.35;;;;;;;;;;6308851;22;20433;-82
2023/08/23 10:54:37;;;;;;;14.38;13.18;;;;;;;;;;6309598;22;20003;-83
2023/08/23 10:57:03;;;;;;;14.50;13.25;;;;;;;;;;6310134;22;20021;-86
2023/08/23 10:59:28;;;;;;;15.13;12.02;;;;;;;;;;6314904;22;20003;-87
2023/08/23 11:01:55;;;;;;;14.48;13.18;;;;;;;;;;6309422;22;20429;-84
2023/08/23 11:04:20;;;;;;;14.68;13.40;;;;;;;;;;6308497;22;19999;-83
2023/08/23 11:06:46;;;;;;;14.32;13.13;;;;;;;;;;6308734;22;20014;-83
2023/08/23 11:09:11;;;;;;;13.77;12.52;;;;;;;;;;6308322;22;20026;-86
2023/08/23 11:11:37;;;;;;;14.18;12.98;;;;;;;;;;6308234;22;19999;-84
2023/08/23 11:14:03;;;;;;;14.40;13.10;;;;;;;;;;6308262;22;20491;-83
2023/08/23 11:16:28;;;;;;;13.38;12.18;;;;;;;;;;6308582;22;20011;-84
2023/08/23 11:18:54;;;;;;;13.85;12.60;;;;;;;;;;6281181;22;20010;-84
2023/08/23 11:21:20;;;;;;;14.82;13.32;;;;;;;;;;6308668;22;20003;-83
2023/08/23 11:23:45;;;;;;;14.40;13.25;;;;;;;;;;6308365;22;20004;-83
2023/08/23 11:26:11;;;;;;;14.35;13.05;;;;;;;;;;6281184;22;20031;-84
2023/08/23 11:28:36;;;;;;;13.70;12.48;;;;;;;;;;6308283;22;20011;-84
2023/08/23 11:31:06;;;;;;;14.27;12.88;;;;;;;;;;6308747;22;20078;-82
2023/08/23 11:33:33;;;;;;;14.55;13.15;;;;;;;;;;6280597;22;20334;-83
2023/08/23 11:35:59;;;;;;;14.73;13.30;;;;;;;;;;6308640;22;20414;-87
2023/08/23 11:38:27;;;;;;;14.45;13.13;;;;;;;;;;6308179;22;20016;-86
2023/08/23 11:40:53;;;;;;;14.05;12.70;;;;;;;;;;6281017;22;20398;-82
2023/08/23 11:43:18;;;;;;;13.43;12.23;;;;;;;;;;6307975;22;20014;-82
2023/08/23 11:45:43;;;;;;;14.52;13.27;;;;;;;;;;6308139;22;20415;-82
2023/08/23 16:04:00;;;;;;;11.45;10.32;;;;;;;;;;6307375;22;20739;-86
2023/08/23 16:06:25;;;;;;;11.25;10.18;;;;;;;;;;6307915;22;20007;-84
2023/08/23 16:08:51;;;;;;;12.25;11.05;;;;;;;;;;6306884;22;20027;-86
2023/08/23 16:11:16;;;;;;;11.85;10.65;;;;;;;;;;6298776;22;20367;-85
2023/08/23 16:13:42;;;;;;;11.13;10.13;;;;;;;;;;6276555;22;20008;-84
2023/08/23 16:16:08;;;;;;;12.07;10.88;;;;;;;;;;6276671;22;20003;-84
2023/08/23 16:18:34;;;;;;;13.07;11.75;;;;;;;;;;6276714;22;20027;-84
2023/08/23 16:20:59;;;;;;;11.95;10.82;;;;;;;;;;6277285;22;19995;-87
2023/08/23 16:23:25;;;;;;;14.23;11.48;;;;;;;;;;6276787;22;20016;-85
2023/08/23 16:25:52;;;;;;;14.07;12.57;;;;;;;;;;6276799;22;19999;-87
2023/08/23 16:28:17;;;;;;;14.43;11.95;;;;;;;;;;6276808;22;20003;-86
2023/08/23 16:30:47;;;;;;;13.07;11.77;;;;;;;;;;6277546;22;20381;-86
2023/08/23 16:33:13;;;;;;;12.70;11.40;;;;;;;;;;6275750;22;20405;-85
2023/08/23 16:35:38;;;;;;;12.88;11.48;;;;;;;;;;6276730;22;20399;-85
2023/08/23 16:38:04;;;;;;;12.45;11.25;;;;;;;;;;6275247;22;20288;-86
2023/08/23 16:40:29;;;;;;;13.70;12.18;;;;;;;;;;6275048;22;20004;-86
2023/08/23 16:42:55;;;;;;;12.73;11.40;;;;;;;;;;6276153;22;20334;-86
2023/08/23 16:45:21;;;;;;;15.45;11.65;;;;;;;;;;6276715;22;20057;-85
2023/08/23 16:47:46;;;;;;;12.63;11.43;;;;;;;;;;6276276;22;20002;-84
2023/08/23 16:50:12;;;;;;;12.93;11.73;;;;;;;;;;6276697;22;19996;-86
2023/08/23 16:52:37;;;;;;;12.45;11.23;;;;;;;;;;6278849;22;20008;-83
2023/08/23 16:55:04;;;;;;;12.57;11.40;;;;;;;;;;6278590;22;20075;-84
2023/08/23 16:57:30;;;;;;;14.43;11.90;;;;;;;;;;6283918;22;20011;-85
2023/08/23 16:59:56;;;;;;;11.90;10.63;;;;;;;;;;6282147;22;20008;-85
2023/08/23 17:02:21;;;;;;;11.95;10.77;;;;;;;;;;6278913;22;20022;-85
2023/08/23 17:04:47;;;;;;;12.05;10.57;;;;;;;;;;6292684;22;20011;-86
2023/08/23 17:07:14;;;;;;;12.20;11.00;;;;;;;;;;6310096;22;20030;-86
2023/08/23 17:09:43;;;;;;;11.77;10.55;;;;;;;;;;6282702;22;20006;-85
2023/08/23 17:12:09;;;;;;;11.50;10.55;;;;;;;;;;6281967;22;20057;-86
2023/08/23 17:14:34;;;;;;;12.13;11.02;;;;;;;;;;6311687;22;20003;-89
2023/08/23 17:17:00;;;;;;;11.98;10.88;;;;;;;;;;6282364;22;20330;-86
2023/08/23 17:19:26;;;;;;;11.90;10.57;;;;;;;;;;6309442;22;19999;-87
2023/08/23 17:21:51;;;;;;;13.38;9.65;;;;;;;;;;6309081;22;20003;-85
2023/08/23 17:24:17;;;;;;;11.70;9.60;;;;;;;;;;6309682;22;20407;-85
2023/08/23 17:26:43;;;;;;;11.30;10.20;;;;;;;;;;6310450;22;20456;-87
2023/08/23 17:29:09;;;;;;;10.60;9.57;;;;;;;;;;6310073;22;20006;-86
2023/08/23 17:31:34;;;;;;;10.77;9.77;;;;;;;;;;6310156;22;20079;-86
2023/08/23 17:34:00;;;;;;;12.10;10.07;;;;;;;;;;6310073;22;20476;-88
2023/08/23 17:36:25;;;;;;;10.88;9.82;;;;;;;;;;6310885;22;20027;-84
2023/08/23 17:38:50;;;;;;;11.02;9.85;;;;;;;;;;6310075;22;20008;-84
2023/08/23 17:41:16;;;;;;;11.00;9.90;;;;;;;;;;6309428;22;20003;-83
2023/08/23 17:43:41;;;;;;;11.30;10.13;;;;;;;;;;6309540;22;20041;-84
2023/08/23 17:46:08;;;;;;;10.70;9.75;;;;;;;;;;6310508;22;20004;-84
2023/08/23 17:48:34;;;;;;;11.07;10.07;;;;;;;;;;6282784;22;20056;-83
2023/08/23 17:51:00;;;;;;;12.57;10.40;;;;;;;;;;6310852;22;20007;-87
2023/08/23 17:53:27;;;;;;;11.05;9.95;;;;;;;;;;6309529;22;20011;-87
2023/08/23 17:56:00;;;;;;;11.48;10.43;;;;;;;;;;6282202;22;20007;-85
2023/08/23 17:58:25;;;;;;;10.25;9.25;;;;;;;;;;6309036;22;19999;-86
2023/08/23 18:00:51;;;;;;;10.70;9.70;;;;;;;;;;6309126;22;20379;-85
2023/08/23 18:03:16;;;;;;;11.15;9.32;;;;;;;;;;6281285;22;20052;-89
2023/08/23 18:05:42;;;;;;;10.75;9.00;;;;;;;;;;6281314;22;20075;-86
2023/08/23 18:08:07;;;;;;;10.55;8.00;;;;;;;;;;6308958;22;20086;-87
2023/08/23 18:10:32;;;;;;;11.43;10.27;;;;;;;;;;6309815;22;20015;-86
2023/08/23 18:12:58;;;;;;;9.88;8.88;;;;;;;;;;6281370;22;20072;-85
2023/08/23 18:15:23;;;;;;;11.55;10.35;;;;;;;;;;6281382;22;20003;-85
2023/08/23 18:17:49;;;;;;;10.45;9.40;;;;;;;;;;6309033;22;20057;-89
2023/08/23 18:20:15;;;;;;;9.98;9.07;;;;;;;;;;6312066;22;20006;-88
2023/08/23 18:22:40;;;;;;;9.70;8.60;;;;;;;;;;6283426;22;20003;-95
2023/08/23 18:25:06;;;;;;;9.93;8.93;;;;;;;;;;6309802;22;20444;-84
2023/08/23 18:27:31;;;;;;;9.60;8.60;;;;;;;;;;6309040;22;20023;-85
2023/08/23 18:29:57;;;;;;;8.68;7.85;;;;;;;;;;6308721;22;20007;-86
2023/08/23 18:32:22;;;;;;;9.27;7.88;;;;;;;;;;6308518;22;20451;-86
2023/08/23 18:34:48;;;;;;;9.50;7.78;;;;;;;;;;6308554;22;19999;-87
2023/08/23 18:37:15;;;;;;;9.07;8.15;;;;;;;;;;6308539;22;20011;-90
2023/08/23 18:39:40;;;;;;;9.93;8.75;;;;;;;;;;6308746;22;20326;-84
2023/08/23 18:42:06;;;;;;;9.27;8.48;;;;;;;;;;6308295;22;20003;-86
2023/08/23 18:44:32;;;;;;;9.90;8.90;;;;;;;;;;6281267;22;20061;-84
2023/08/23 18:46:57;;;;;;;9.27;8.38;;;;;;;;;;6308734;22;20007;-84
2023/08/23 18:49:23;;;;;;;9.48;8.65;;;;;;;;;;6309197;22;20003;-85
2023/08/23 18:51:48;;;;;;;9.85;8.88;;;;;;;;;;6308445;22;20483;-85
2023/08/23 18:54:13;;;;;;;9.57;8.63;;;;;;;;;;6280917;22;20140;-86
2023/08/23 18:56:39;;;;;;;11.63;8.98;;;;;;;;;;6308412;22;20003;-85
2023/08/23 18:59:04;;;;;;;11.25;9.45;;;;;;;;;;6308277;22;20029;-85
2023/08/23 19:01:30;;;;;;;11.05;9.93;;;;;;;;;;6308508;22;20006;-84
2023/08/23 19:03:56;;;;;;;12.65;10.68;;;;;;;;;;6281206;22;20011;-84
2023/08/23 19:06:22;;;;;;;11.40;10.20;;;;;;;;;;6308020;22;20090;-85
2023/08/23 19:08:48;;;;;;;12.57;10.25;;;;;;;;;;6308219;22;20078;-84
2023/08/23 19:11:13;;;;;;;10.18;9.20;;;;;;;;;;6280838;22;20434;-85
2023/08/23 19:13:39;;;;;;;10.73;9.63;;;;;;;;;;6307711;22;20014;-85
2023/08/23 19:16:04;;;;;;;11.52;10.43;;;;;;;;;;6308497;22;19999;-85
2023/08/23 19:18:30;;;;;;;12.60;9.95;;;;;;;;;;6308186;22;20025;-84
2023/08/23 19:20:55;;;;;;;10.10;9.07;;;;;;;;;;6308388;22;20057;-85
2023/08/23 19:23:21;;;;;;;9.82;8.88;;;;;;;;;;6308226;22;20007;-86
2023/08/23 19:25:46;;;;;;;10.30;8.90;;;;;;;;;;6308149;22;20056;-85
2023/08/23 19:28:12;;;;;;;10.38;8.73;;;;;;;;;;6307981;22;20003;-86
2023/08/23 19:30:37;;;;;;;9.55;8.68;;;;;;;;;;6307865;22;20475;-86
2023/08/23 19:33:03;;;;;;;10.50;9.48;;;;;;;;;;6307787;22;20047;-85
2023/08/23 19:35:45;;;;;;;9.90;9.00;;;;;;;;;;6280688;22;20007;-85
2023/08/23 19:38:12;;;;;;;11.00;9.45;;;;;;;;;;6307945;22;20007;-85
2023/08/23 19:40:38;;;;;;;10.07;9.05;;;;;;;;;;6307865;22;20007;-84
2023/08/23 19:43:04;;;;;;;9.65;8.65;;;;;;;;;;6307932;22;20011;-84
2023/08/23 19:45:30;;;;;;;9.23;8.35;;;;;;;;;;6308259;22;20087;-84
2023/08/23 19:47:56;;;;;;;9.70;8.77;;;;;;;;;;6308051;22;20002;-85
2023/08/23 19:50:22;;;;;;;11.20;9.13;;;;;;;;;;6308048;22;20006;-84
2023/08/23 19:52:48;;;;;;;10.48;9.48;;;;;;;;;;6307852;22;20003;-85
2023/08/23 19:55:14;;;;;;;10.27;9.38;;;;;;;;;;6308013;22;20003;-85
2023/08/23 19:57:39;;;;;;;10.82;9.68;;;;;;;;;;6308257;22;20011;-85
2023/08/23 20:00:05;;;;;;;10.20;9.20;;;;;;;;;;6307898;22;20440;-85
2023/08/23 20:02:31;;;;;;;9.35;8.27;;;;;;;;;;6308322;22;20007;-85
2023/08/23 20:04:56;;;;;;;9.75;8.95;;;;;;;;;;6307994;22;20338;-85
2023/08/23 20:07:23;;;;;;;10.30;9.30;;;;;;;;;;6307807;22;20410;-84
2023/08/23 20:09:49;;;;;;;9.13;8.32;;;;;;;;;;6307966;22;20003;-85
2023/08/23 20:12:14;;;;;;;9.68;8.75;;;;;;;;;;6308022;22;20007;-85
2023/08/23 20:14:40;;;;;;;9.10;8.25;;;;;;;;;;6308390;22;20004;-85
2023/08/23 20:17:05;;;;;;;9.25;8.45;;;;;;;;;;6307785;22;20003;-85
2023/08/23 20:19:31;;;;;;;10.70;9.68;;;;;;;;;;6307868;22;20322;-85
2023/08/23 20:21:56;;;;;;;9.90;8.93;;;;;;;;;;6308056;22;20078;-82
2023/08/23 20:24:22;;;;;;;10.65;9.55;;;;;;;;;;6307862;22;19995;-83
2023/08/23 20:26:47;;;;;;;10.13;9.00;;;;;;;;;;6281733;22;20007;-83
2023/08/23 20:29:14;;;;;;;10.25;8.63;;;;;;;;;;6310055;22;20014;-83
2023/08/23 20:31:39;;;;;;;9.82;8.93;;;;;;;;;;6310090;22;20070;-83
2023/08/23 20:34:05;;;;;;;10.10;9.05;;;;;;;;;;6309964;22;20362;-83
2023/08/23 20:36:30;;;;;;;10.18;9.15;;;;;;;;;;6309692;22;20407;-83
2023/08/23 20:38:56;;;;;;;9.68;8.82;;;;;;;;;;6309705;22;20006;-83
2023/08/23 20:41:21;;;;;;;10.52;9.52;;;;;;;;;;6309616;22;19999;-83
2023/08/23 20:43:47;;;;;;;9.82;8.93;;;;;;;;;;6309548;22;20475;-83
2023/08/23 20:46:13;;;;;;;10.20;9.20;;;;;;;;;;6309914;22;20165;-83
2023/08/23 20:48:38;;;;;;;9.57;8.68;;;;;;;;;;6309695;22;20003;-83
2023/08/23 20:51:04;;;;;;;9.50;8.60;;;;;;;;;;6309731;22;19995;-84
2023/08/23 20:53:33;;;;;;;11.43;9.55;;;;;;;;;;6309468;22;20085;-83
2023/08/23 20:55:59;;;;;;;9.27;8.48;;;;;;;;;;6309571;22;20072;-84
2023/08/23 20:58:25;;;;;;;9.45;8.60;;;;;;;;;;6256718;22;20307;-83
2023/08/23 21:00:58;;;;;;;10.13;8.73;;;;;;;;;;6309670;22;19999;-83
2023/08/23 21:03:24;;;;;;;9.55;8.55;;;;;;;;;;6309330;22;20379;-83
2023/08/23 21:05:49;;;;;;;9.75;8.85;;;;;;;;;;6281725;22;20045;-83
2023/08/23 21:08:16;;;;;;;10.50;9.43;;;;;;;;;;6282090;22;20007;-83
2023/08/23 21:10:42;;;;;;;11.57;9.20;;;;;;;;;;6309116;22;20003;-83
2023/08/23 21:13:11;;;;;;;10.45;9.43;;;;;;;;;;6309911;22;20414;-83
2023/08/23 21:15:46;;;;;;;10.05;9.15;;;;;;;;;;6309370;22;20068;-85
2023/08/23 21:18:12;;;;;;;10.43;9.30;;;;;;;;;;6309346;22;19999;-84
2023/08/23 21:20:37;;;;;;;9.75;8.85;;;;;;;;;;6308968;22;20009;-84
2023/08/23 21:23:03;;;;;;;9.50;8.57;;;;;;;;;;6281751;22;20003;-83
2023/08/23 21:25:28;;;;;;;9.32;8.50;;;;;;;;;;6309455;22;20063;-84
2023/08/23 21:27:54;;;;;;;10.38;9.38;;;;;;;;;;6281831;22;19999;-84
2023/08/23 21:30:19;;;;;;;10.30;9.30;;;;;;;;;;6309215;22;20078;-84
2023/08/23 21:32:45;;;;;;;11.00;9.27;;;;;;;;;;6309227;22;20007;-83
2023/08/23 21:35:10;;;;;;;10.52;9.43;;;;;;;;;;6309398;22;20002;-83
2023/08/23 21:37:36;;;;;;;10.13;8.98;;;;;;;;;;6309070;22;20012;-83
2023/08/23 21:40:02;;;;;;;10.05;9.05;;;;;;;;;;6309122;22;20031;-84
2023/08/23 21:42:27;;;;;;;10.68;9.57;;;;;;;;;;6309027;22;20000;-84
2023/08/23 21:44:53;;;;;;;10.15;9.18;;;;;;;;;;6309136;22;20014;-84
2023/08/23 21:47:18;;;;;;;11.00;9.93;;;;;;;;;;6308967;22;20006;-84
2023/08/23 21:49:43;;;;;;;11.77;8.80;;;;;;;;;;6309111;22;19999;-84
2023/08/23 21:52:09;;;;;;;10.13;9.13;;;;;;;;;;6308796;22;19999;-84
2023/08/23 21:54:34;;;;;;;11.00;10.00;;;;;;;;;;6308907;22;20078;-84
2023/08/23 21:57:00;;;;;;;10.10;9.20;;;;;;;;;;6281431;22;20038;-84
2023/08/23 21:59:25;;;;;;;10.50;9.48;;;;;;;;;;6309136;22;20045;-84
2023/08/23 22:01:51;;;;;;;10.38;9.20;;;;;;;;;;6309030;22;20010;-84
2023/08/23 22:04:16;;;;;;;10.38;9.40;;;;;;;;;;6309153;22;20011;-84
2023/08/23 22:06:42;;;;;;;11.60;9.90;;;;;;;;;;6308813;22;20003;-85
2023/08/23 22:09:07;;;;;;;10.57;9.50;;;;;;;;;;6308868;22;20022;-85
2023/08/23 22:11:33;;;;;;;12.20;9.85;;;;;;;;;;6309356;22;20010;-84
2023/08/23 22:13:58;;;;;;;10.55;9.55;;;;;;;;;;6308992;22;20003;-87
